KHOP/HOP METAR and TAF weather

Enter ICAO airport designator
Station Type Date Time Source
KHOP METAR 2019/10/23 02:56 UTC NOAA

KHOP 230256Z AUTO 22007KT 10SM CLR 08/02 A3004 RMK AO2 SLP175 T00790019 52015


Station Type Date Time Source
KHOP Decoded METAR 2019/10/23 02:56 UTC NOAA

Fort Campbell U. S. Army Airfield, KY, United States (KHOP) 36-40N 087-30W 174M
Oct 22, 2019 - 10:56 PM EDT / 2019.10.23 0256 UTC
Wind: from the SW (220 degrees) at 8 MPH (7 KT):0
Visibility: 10 mile(s):0
Sky conditions: clear
Temperature: 46.2 F (7.9 C)
Dew Point: 35.4 F (1.9 C)
Relative Humidity: 65%
Pressure (altimeter): 30.04 in. Hg (1017 hPa)
Pressure tendency: 0.04 inches (1.5 hPa) higher than three hours ago
ob: KHOP 230256Z AUTO 22007KT 10SM CLR 08/02 A3004 RMK AO2 SLP175 T00790019 52015
cycle: 3

Station Type Date Time Source
KHOP TAF 2019/10/23 00:29 UTC NOAA

TAF KHOP 230000Z 2300/2406 23009KT 9999 SKC QNH2990INS TX18/2320Z TN06/2312Z

Example: see airport list